createdAt,value
2019-03-13T00:04:17.051Z,84.19
2019-03-13T00:09:22.227Z,85.09
2019-03-13T00:14:27.556Z,85.82
2019-03-13T00:19:32.772Z,85.62
2019-03-13T00:24:38.041Z,83.91
2019-03-13T00:29:43.283Z,83.86
2019-03-13T00:34:48.481Z,84.70
2019-03-13T00:39:53.666Z,85.87
2019-03-13T00:50:25.287Z,86.42
2019-03-13T00:55:30.478Z,86.57
2019-03-13T01:06:07.367Z,84.30
2019-03-13T01:11:12.614Z,83.51
2019-03-13T01:16:17.936Z,83.45
2019-03-13T01:21:23.662Z,81.75
2019-03-13T01:26:28.881Z,83.94
2019-03-13T01:31:43.006Z,84.43
2019-03-13T01:36:48.322Z,85.66
2019-03-13T01:41:53.473Z,86.06
2019-03-13T01:46:58.713Z,86.04
2019-03-13T01:52:03.962Z,84.60
2019-03-13T01:57:09.294Z,84.66
2019-03-13T02:02:14.623Z,83.34
2019-03-13T02:07:19.922Z,83.68
2019-03-13T02:12:25.228Z,83.10
2019-03-13T02:17:30.602Z,82.47
2019-03-13T02:22:35.869Z,82.38
2019-03-13T02:27:41.133Z,81.59
2019-03-13T02:32:46.380Z,81.26
2019-03-13T02:37:51.711Z,81.72
2019-03-13T02:42:57.202Z,81.83
2019-03-13T02:48:02.490Z,81.12
2019-03-13T02:53:07.729Z,81.23
2019-03-13T02:58:13.021Z,82.25
2019-03-13T03:03:30.021Z,81.59
2019-03-13T03:08:35.283Z,81.02
2019-03-13T03:13:40.651Z,81.65
2019-03-13T03:18:45.841Z,82.97
2019-03-13T03:23:51.095Z,83.59
2019-03-13T03:28:56.338Z,81.22
2019-03-13T03:34:03.106Z,81.55
2019-03-13T03:39:09.396Z,82.29
2019-03-13T03:44:14.858Z,82.19
2019-03-13T03:49:20.184Z,81.91
2019-03-13T03:54:25.516Z,83.07
2019-03-13T03:59:30.802Z,83.58
2019-03-13T04:04:36.180Z,84.58
2019-03-13T04:09:41.449Z,83.25
2019-03-13T04:14:46.620Z,83.26
2019-03-13T04:19:51.893Z,83.18
2019-03-13T04:25:14.375Z,82.81
2019-03-13T04:30:19.711Z,83.01
2019-03-13T04:35:24.920Z,83.10
2019-03-13T04:40:30.098Z,83.50
2019-03-13T04:45:35.429Z,83.84
2019-03-13T04:50:40.702Z,83.04
2019-03-13T04:55:46.010Z,83.98
2019-03-13T05:00:51.234Z,84.24
2019-03-13T05:05:58.597Z,81.63
2019-03-13T05:11:03.870Z,80.74
2019-03-13T05:16:09.083Z,80.78
2019-03-13T05:21:14.315Z,81.94
2019-03-13T05:26:19.690Z,81.95
2019-03-13T05:31:24.946Z,82.75
2019-03-13T05:36:30.211Z,82.63
2019-03-13T05:41:35.563Z,81.66
2019-03-13T05:46:40.754Z,81.46
2019-03-13T05:51:45.942Z,82.62
2019-03-13T05:56:51.272Z,82.16
2019-03-13T06:01:56.463Z,82.23
2019-03-13T06:07:01.726Z,82.61
2019-03-13T06:12:07.063Z,82.74
2019-03-13T06:17:12.359Z,82.67
2019-03-13T06:22:17.643Z,82.66
2019-03-13T06:27:23.920Z,82.59
2019-03-13T06:32:29.338Z,81.65
2019-03-13T06:37:34.682Z,80.96
2019-03-13T06:42:40.185Z,80.41
2019-03-13T06:47:45.526Z,79.62
2019-03-13T06:52:50.759Z,79.51
2019-03-13T06:57:55.983Z,79.41
2019-03-13T07:03:08.347Z,78.29
2019-03-13T07:08:29.163Z,78.86
2019-03-13T07:13:43.825Z,79.51
2019-03-13T07:18:57.913Z,80.15
2019-03-13T07:24:08.553Z,78.81
2019-03-13T07:29:21.793Z,77.78
2019-03-13T07:34:34.963Z,77.83
2019-03-13T07:39:59.057Z,75.99
2019-03-13T07:45:11.094Z,75.92
2019-03-13T07:50:28.484Z,73.87
2019-03-13T07:55:48.663Z,72.34
2019-03-13T08:01:04.546Z,72.97
2019-03-13T08:06:28.598Z,71.67
2019-03-13T08:11:44.211Z,73.13
2019-03-13T08:16:56.859Z,71.97
2019-03-13T08:22:10.978Z,70.00
2019-03-13T08:27:24.943Z,72.75
2019-03-13T08:32:40.947Z,74.91
2019-03-13T08:37:54.123Z,71.26
2019-03-13T08:43:12.350Z,72.62
2019-03-13T08:48:26.240Z,74.11
2019-03-13T08:53:49.592Z,74.16
2019-03-13T08:59:05.458Z,73.50
2019-03-13T09:04:19.386Z,73.69
2019-03-13T09:09:33.954Z,71.75
2019-03-13T09:14:48.455Z,70.37
2019-03-13T09:20:05.589Z,71.52
2019-03-13T09:25:30.077Z,70.58
2019-03-13T09:30:44.847Z,70.47
2019-03-13T09:35:58.803Z,70.10
2019-03-13T09:41:11.304Z,68.24
2019-03-13T09:46:24.907Z,66.40
2019-03-13T09:51:37.885Z,63.77
2019-03-13T09:56:50.793Z,59.76
2019-03-13T10:02:11.722Z,58.14
2019-03-13T10:07:29.275Z,56.96
2019-03-13T10:12:41.167Z,59.75
2019-03-13T10:17:54.903Z,60.88
2019-03-13T10:23:07.534Z,56.35
2019-03-13T10:28:23.027Z,54.23
2019-03-13T10:33:36.903Z,55.28
2019-03-13T10:38:50.970Z,55.38
2019-03-13T10:44:05.892Z,63.34
2019-03-13T10:49:18.348Z,69.88
2019-03-13T10:54:38.609Z,78.22
2019-03-13T10:59:49.126Z,80.19
2019-03-13T11:05:02.908Z,74.68
2019-03-13T11:10:14.942Z,66.07
2019-03-13T11:15:28.982Z,64.22
2019-03-13T11:20:42.943Z,61.43
2019-03-13T11:25:55.692Z,57.99
2019-03-13T11:31:17.799Z,59.04
2019-03-13T11:36:35.034Z,58.70
2019-03-13T11:41:56.446Z,56.60
2019-03-13T11:47:10.327Z,55.58
2019-03-13T11:52:25.067Z,55.17
2019-03-13T11:57:38.904Z,55.84
2019-03-13T12:02:56.330Z,54.36
2019-03-13T12:08:20.659Z,53.57
2019-03-13T12:13:36.681Z,55.28
2019-03-13T12:18:48.735Z,54.51
2019-03-13T12:24:01.972Z,58.52
2019-03-13T12:29:16.031Z,58.31
2019-03-13T12:34:28.255Z,62.05
2019-03-13T12:39:41.103Z,59.84
2019-03-13T12:44:57.223Z,64.57
2019-03-13T12:50:09.442Z,69.81
2019-03-13T12:55:22.438Z,70.49
2019-03-13T13:00:37.763Z,65.96
2019-03-13T13:05:54.578Z,67.67
2019-03-13T13:11:08.507Z,64.44
2019-03-13T13:16:21.969Z,62.80
2019-03-13T13:21:27.255Z,63.52
2019-03-13T13:26:32.477Z,65.89
2019-03-13T13:31:37.682Z,62.67
2019-03-13T13:36:42.972Z,65.51
2019-03-13T13:41:50.794Z,67.28
2019-03-13T13:46:56.083Z,67.14
2019-03-13T13:52:01.313Z,68.83
2019-03-13T13:57:06.607Z,72.54
2019-03-13T14:02:13.971Z,71.23
2019-03-13T14:07:19.343Z,66.65
2019-03-13T14:12:24.712Z,66.65
2019-03-13T14:17:32.374Z,61.71
2019-03-13T14:22:37.678Z,61.96
2019-03-13T14:27:43.115Z,62.53
2019-03-13T14:32:50.907Z,61.85
2019-03-13T14:37:56.279Z,62.94
2019-03-13T14:43:01.652Z,65.13
2019-03-13T14:48:06.968Z,65.52
2019-03-13T14:53:13.992Z,65.79
2019-03-13T14:58:19.295Z,65.28
2019-03-13T15:03:25.003Z,66.96
2019-03-13T15:08:30.324Z,68.72
2019-03-13T15:13:35.753Z,69.56
2019-03-13T15:18:41.035Z,69.11
2019-03-13T15:23:46.563Z,69.08
2019-03-13T15:28:51.752Z,69.74
2019-03-13T15:33:58.158Z,71.37
2019-03-13T15:39:03.703Z,72.91
2019-03-13T15:44:08.975Z,73.90
2019-03-13T15:49:14.262Z,72.66
2019-03-13T15:54:19.627Z,73.20
2019-03-13T15:59:27.887Z,73.32
2019-03-13T16:04:33.327Z,73.70
2019-03-13T16:09:38.850Z,74.91
2019-03-13T16:14:45.308Z,75.50
2019-03-13T16:19:50.783Z,76.34
2019-03-13T16:24:56.136Z,76.84
2019-03-13T16:30:01.646Z,77.19
2019-03-13T16:35:07.702Z,77.70
2019-03-13T16:40:14.330Z,78.08
2019-03-13T16:45:19.933Z,78.84
2019-03-13T16:50:25.240Z,79.66
2019-03-13T16:55:30.636Z,79.48
2019-03-13T17:00:37.909Z,79.65
2019-03-13T17:05:43.254Z,79.81
2019-03-13T17:10:48.618Z,80.14
2019-03-13T17:15:53.988Z,79.24
2019-03-13T17:21:01.286Z,78.46
2019-03-13T17:26:09.583Z,78.26
2019-03-13T17:31:15.055Z,78.81
2019-03-13T17:36:20.270Z,78.96
2019-03-13T17:41:25.557Z,79.71
2019-03-13T17:46:30.877Z,79.92
2019-03-13T17:51:36.188Z,80.46
2019-03-13T17:56:41.478Z,81.08
2019-03-13T18:01:46.731Z,81.67
2019-03-13T18:06:52.123Z,82.40
2019-03-13T18:11:57.422Z,82.96
2019-03-13T18:17:02.823Z,81.76
2019-03-13T18:22:08.018Z,82.04
2019-03-13T18:27:14.368Z,82.84
2019-03-13T18:32:19.888Z,83.54
2019-03-13T18:37:25.618Z,84.34
2019-03-13T18:42:34.251Z,84.28
2019-03-13T18:47:40.769Z,84.74
2019-03-13T18:52:46.159Z,85.07
2019-03-13T18:57:51.791Z,84.66
2019-03-13T19:02:57.749Z,83.94
2019-03-13T19:08:03.012Z,83.84
2019-03-13T19:13:08.688Z,83.66
2019-03-13T19:18:13.994Z,83.93
2019-03-13T19:23:19.383Z,85.10
2019-03-13T19:28:24.689Z,85.98
2019-03-13T19:33:31.288Z,86.23
2019-03-13T19:38:36.567Z,86.59
2019-03-13T19:43:42.009Z,86.45
2019-03-13T19:48:47.394Z,86.37
2019-03-13T19:53:52.888Z,86.58
2019-03-13T19:58:58.189Z,87.52
2019-03-13T20:04:03.625Z,88.03
2019-03-13T20:09:09.563Z,88.15
2019-03-13T20:14:14.970Z,88.93
2019-03-13T20:19:20.245Z,90.07
2019-03-13T20:24:25.515Z,91.17
2019-03-13T20:29:30.826Z,92.15
2019-03-13T20:34:36.227Z,92.61
2019-03-13T20:39:41.625Z,92.91
2019-03-13T20:44:46.883Z,93.30
2019-03-13T20:49:52.182Z,93.29
2019-03-13T20:54:57.896Z,93.25
2019-03-13T21:00:03.375Z,93.13
2019-03-13T21:05:08.896Z,92.56
2019-03-13T21:10:14.486Z,92.80
2019-03-13T21:15:20.012Z,93.34
2019-03-13T21:20:25.607Z,94.00
2019-03-13T21:25:30.882Z,94.46
2019-03-13T21:30:36.147Z,94.46
2019-03-13T21:35:43.842Z,94.79
2019-03-13T21:40:49.169Z,95.35
2019-03-13T21:45:54.576Z,95.79
2019-03-13T21:50:59.887Z,95.76
2019-03-13T21:56:05.215Z,95.99
2019-03-13T22:01:19.671Z,96.14
2019-03-13T22:06:28.242Z,96.46
2019-03-13T22:11:24.494Z,96.71
2019-03-13T22:16:29.895Z,96.77
2019-03-13T22:21:35.147Z,96.78
2019-03-13T22:26:40.435Z,96.62
2019-03-13T22:31:45.636Z,96.29
2019-03-13T22:36:50.818Z,96.46
2019-03-13T22:41:58.302Z,96.24
2019-03-13T22:47:03.618Z,96.21
2019-03-13T22:52:08.883Z,96.03
2019-03-13T22:57:14.188Z,96.04
2019-03-13T23:02:19.711Z,96.44
2019-03-13T23:07:25.655Z,96.67
2019-03-13T23:12:30.996Z,96.78
2019-03-13T23:17:36.236Z,96.71
2019-03-13T23:22:41.494Z,96.76
2019-03-13T23:27:46.705Z,96.94
2019-03-13T23:32:52.030Z,96.88
2019-03-13T23:37:57.244Z,96.88
2019-03-13T23:43:02.485Z,96.42
2019-03-13T23:48:07.840Z,96.30
2019-03-13T23:53:13.198Z,96.23
2019-03-13T23:58:18.396Z,96.44
